createdAt,value
2019-05-20T00:01:33.844Z,42.88
2019-05-20T00:04:02.204Z,42.23
2019-05-20T00:06:30.536Z,41.98
2019-05-20T00:08:58.816Z,37.90
2019-05-20T00:11:27.134Z,37.05
2019-05-20T00:13:55.542Z,33.18
2019-05-20T00:16:23.913Z,34.90
2019-05-20T00:18:52.224Z,32.17
2019-05-20T00:21:20.563Z,32.48
2019-05-20T00:23:48.956Z,30.52
2019-05-20T00:26:17.599Z,29.75
2019-05-20T00:28:46.039Z,28.87
2019-05-20T00:31:14.379Z,27.40
2019-05-20T00:33:42.755Z,30.45
2019-05-20T00:36:11.067Z,27.15
2019-05-20T00:38:39.359Z,27.22
2019-05-20T00:41:07.725Z,26.07
2019-05-20T00:43:36.119Z,26.20
2019-05-20T00:46:04.483Z,27.27
2019-05-20T00:48:33.105Z,25.05
2019-05-20T00:51:01.791Z,24.07
2019-05-20T00:53:30.159Z,25.08
2019-05-20T00:55:58.540Z,24.47
2019-05-20T00:58:26.954Z,24.18
2019-05-20T01:00:55.308Z,23.95
2019-05-20T01:03:23.990Z,21.70
2019-05-20T01:05:52.544Z,22.58
2019-05-20T01:08:20.908Z,23.40
2019-05-20T01:10:49.205Z,24.85
2019-05-20T01:13:17.530Z,22.97
2019-05-20T01:15:46.183Z,22.87
2019-05-20T01:18:14.545Z,25.25
2019-05-20T01:20:42.967Z,22.48
2019-05-20T01:23:11.327Z,23.33
2019-05-20T01:25:39.627Z,24.98
2019-05-20T01:28:08.391Z,25.37
2019-05-20T01:30:36.773Z,26.55
2019-05-20T01:33:13.712Z,26.95
2019-05-20T01:35:35.211Z,27.22
2019-05-20T01:38:03.564Z,25.50
2019-05-20T01:40:31.852Z,23.07
2019-05-20T01:43:00.285Z,20.95
2019-05-20T01:45:28.643Z,21.48
2019-05-20T01:47:57.011Z,21.10
2019-05-20T01:50:25.404Z,20.43
2019-05-20T01:52:54.145Z,18.70
2019-05-20T01:55:22.457Z,18.40
2019-05-20T01:57:51.103Z,18.42
2019-05-20T02:00:19.482Z,18.62
2019-05-20T02:02:47.859Z,15.95
2019-05-20T02:05:16.270Z,16.63
2019-05-20T02:07:44.640Z,16.67
2019-05-20T02:10:13.082Z,17.30
2019-05-20T02:12:41.468Z,15.55
2019-05-20T02:15:11.420Z,17.62
2019-05-20T02:17:39.789Z,16.20
2019-05-20T02:20:08.364Z,19.07
2019-05-20T02:22:36.752Z,18.93
2019-05-20T02:25:05.314Z,20.97
2019-05-20T02:27:33.686Z,20.20
2019-05-20T02:30:02.109Z,22.90
2019-05-20T02:32:30.545Z,22.40
2019-05-20T02:34:58.889Z,21.62
2019-05-20T02:37:27.266Z,22.17
2019-05-20T02:39:55.620Z,20.50
2019-05-20T02:42:24.002Z,20.60
2019-05-20T02:44:52.312Z,18.60
2019-05-20T02:47:20.917Z,18.25
2019-05-20T02:49:49.380Z,18.25
2019-05-20T02:52:17.674Z,17.82
2019-05-20T02:54:46.039Z,18.40
2019-05-20T02:57:14.434Z,17.27
2019-05-20T02:59:42.813Z,16.60
2019-05-20T03:02:11.111Z,17.23
2019-05-20T03:04:40.183Z,16.35
2019-05-20T03:07:08.550Z,16.13
2019-05-20T03:09:36.848Z,16.87
2019-05-20T03:12:05.636Z,16.30
2019-05-20T03:14:34.054Z,14.03
2019-05-20T03:17:02.438Z,13.93
2019-05-20T03:19:30.852Z,14.05
2019-05-20T03:21:59.217Z,14.73
2019-05-20T03:24:27.523Z,16.70
2019-05-20T03:26:55.924Z,15.48
2019-05-20T03:29:24.312Z,16.45
2019-05-20T03:31:52.678Z,16.55
2019-05-20T03:34:43.826Z,17.45
2019-05-20T03:36:51.083Z,17.95
2019-05-20T03:39:19.459Z,16.40
2019-05-20T03:41:48.228Z,15.45
2019-05-20T03:44:16.597Z,15.43
2019-05-20T03:46:44.872Z,16.27
2019-05-20T03:49:13.280Z,15.50
2019-05-20T03:51:41.649Z,18.15
2019-05-20T03:54:10.026Z,16.32
2019-05-20T03:56:38.683Z,17.25
2019-05-20T03:59:07.049Z,16.30
2019-05-20T04:01:35.693Z,18.40
2019-05-20T04:04:04.087Z,16.48
2019-05-20T04:06:32.457Z,15.48
2019-05-20T04:09:00.824Z,16.57
2019-05-20T04:11:29.213Z,15.60
2019-05-20T04:13:57.593Z,15.68
2019-05-20T04:16:25.973Z,15.63
2019-05-20T04:18:54.518Z,14.43
2019-05-20T04:21:22.916Z,16.60
2019-05-20T04:23:51.283Z,16.60
2019-05-20T04:26:19.946Z,16.17
2019-05-20T04:28:48.239Z,15.83
2019-05-20T04:31:16.596Z,14.90
2019-05-20T04:33:44.998Z,14.73
2019-05-20T04:36:13.462Z,16.50
2019-05-20T04:38:41.829Z,13.58
2019-05-20T04:41:10.548Z,14.53
2019-05-20T04:43:38.916Z,16.45
2019-05-20T04:46:07.291Z,14.70
2019-05-20T04:48:35.681Z,15.43
2019-05-20T04:51:04.113Z,14.50
2019-05-20T04:53:32.426Z,14.65
2019-05-20T04:56:00.831Z,15.90
2019-05-20T04:58:29.199Z,15.28
2019-05-20T05:00:58.140Z,15.43
2019-05-20T05:03:26.674Z,14.68
2019-05-20T05:05:55.259Z,14.40
2019-05-20T05:08:23.697Z,14.43
2019-05-20T05:10:52.105Z,14.18
2019-05-20T05:13:20.472Z,15.55
2019-05-20T05:18:24.456Z,18.07
2019-05-20T05:20:52.794Z,15.98
2019-05-20T05:23:21.207Z,13.68
2019-05-20T05:28:35.788Z,12.30
2019-05-20T05:31:04.178Z,13.38
2019-05-20T05:33:32.509Z,12.85
2019-05-20T05:36:00.946Z,12.65
2019-05-20T05:38:29.291Z,13.07
2019-05-20T05:40:57.596Z,12.65
2019-05-20T05:43:25.909Z,11.95
2019-05-20T05:45:54.258Z,11.65
2019-05-20T05:48:22.652Z,11.97
2019-05-20T05:50:51.055Z,11.97
2019-05-20T05:53:20.141Z,12.13
2019-05-20T05:55:48.551Z,12.75
2019-05-20T05:58:16.897Z,11.57
2019-05-20T06:00:45.293Z,13.38
2019-05-20T06:03:14.122Z,12.18
2019-05-20T06:05:42.509Z,11.48
2019-05-20T06:08:10.881Z,11.88
2019-05-20T06:10:39.286Z,10.88
2019-05-20T06:13:08.022Z,13.28
2019-05-20T06:15:36.380Z,11.93
2019-05-20T06:18:04.704Z,13.62
2019-05-20T06:20:33.007Z,14.93
2019-05-20T06:23:01.397Z,16.23
2019-05-20T06:25:29.731Z,15.32
2019-05-20T06:27:58.039Z,16.87
2019-05-20T06:30:37.989Z,16.62
2019-05-20T06:33:06.371Z,16.50
2019-05-20T06:35:34.720Z,15.48
2019-05-20T06:38:04.852Z,16.50
2019-05-20T06:40:33.190Z,13.93
2019-05-20T06:43:01.528Z,14.93
2019-05-20T06:45:29.951Z,14.68
2019-05-20T06:47:58.612Z,14.07
2019-05-20T06:50:29.580Z,14.50
2019-05-20T06:59:28.365Z,14.77
2019-05-20T07:01:56.663Z,15.72
2019-05-20T07:04:25.030Z,14.50
2019-05-20T07:06:53.893Z,14.43
2019-05-20T07:09:22.246Z,15.05
2019-05-20T07:11:53.121Z,17.95
2019-05-20T07:14:39.151Z,15.43
2019-05-20T07:17:07.492Z,14.98
2019-05-20T07:19:35.811Z,14.38
2019-05-20T07:22:04.142Z,14.63
2019-05-20T07:24:32.501Z,14.23
2019-05-20T07:27:02.262Z,14.35
2019-05-20T07:29:30.630Z,16.20
2019-05-20T07:31:58.944Z,16.20
2019-05-20T07:34:27.305Z,15.53
2019-05-20T07:37:03.129Z,16.02
2019-05-20T07:39:25.753Z,15.32
2019-05-20T07:41:54.138Z,14.33
2019-05-20T07:44:22.502Z,15.85
2019-05-20T07:46:50.844Z,14.98
2019-05-20T07:49:19.289Z,15.57
2019-05-20T07:51:47.681Z,13.68
2019-05-20T07:54:16.040Z,14.83
2019-05-20T07:56:44.780Z,15.45
2019-05-20T07:59:13.241Z,16.12
2019-05-20T08:01:41.560Z,16.62
2019-05-20T08:04:09.865Z,16.07
2019-05-20T08:06:38.207Z,18.05
2019-05-20T08:09:07.548Z,18.32
2019-05-20T08:11:36.122Z,18.37
2019-05-20T08:14:04.440Z,19.85
2019-05-20T08:16:33.204Z,20.88
2019-05-20T08:19:02.111Z,19.70
2019-05-20T08:21:30.530Z,20.48
2019-05-20T08:23:58.869Z,20.02
2019-05-20T08:26:27.247Z,19.37
2019-05-20T08:28:57.591Z,20.25
2019-05-20T08:31:25.955Z,19.57
2019-05-20T08:33:54.611Z,21.37
2019-05-20T08:36:23.021Z,19.53
2019-05-20T08:38:51.327Z,19.02
2019-05-20T08:41:19.637Z,19.40
2019-05-20T08:43:48.153Z,20.77
2019-05-20T08:46:16.549Z,17.73
2019-05-20T08:48:45.213Z,17.90
2019-05-20T08:51:17.460Z,16.97
2019-05-20T08:53:45.968Z,17.60
2019-05-20T08:56:14.662Z,19.03
2019-05-20T08:58:43.592Z,19.42
2019-05-20T09:01:12.511Z,19.42
2019-05-20T09:03:40.960Z,18.77
2019-05-20T09:06:09.813Z,20.23
2019-05-20T09:08:38.196Z,18.12
2019-05-20T09:11:06.604Z,18.15
2019-05-20T09:13:34.994Z,18.00
